6881500 - Big Blue River at Beatrice

Latitude:
40.25676º N
Longitude:
96.74681º W
Type:
Stream
River Basin:
Big Blue
Source:
NeDNR

Info! The graphs are now plotted with new date ranges.
Warning! If you see this please check date range (or) the data is not available.

 to 


—— Provisional Data Subject to Revision ——

Instantaneous Discharge

6881500 - Big Blue River at Beatrice
- Ice Possible      - Equipment Malfunction
- Seasonal      -Rating in Development
- Measured



Instantaneous Stage

6881500 - Big Blue River at Beatrice
- Ice Possible      - Equipment Malfunction
- Seasonal      -Rating in Development
- Measured



 to 


—— Provisional Data Subject to Revision ——

Daily Discharge

6881500 - Big Blue River at Beatrice
- Approved      - Provisional


Export
Date Time Discharge (cfs) Stage (feet) Shift (feet)
07/09/2019 14:51 781 4.83 0.02
06/05/2019 11:38 6,760 13.58 -0.07
05/09/2019 10:02 1,890 6.96 -0.12
04/10/2019 12:00 704 4.77 -0.07
03/25/2019 14:05 1,980 7.24 -0.25
03/17/2019 13:36 25,100 26.36 0.18
02/28/2019 12:00 279 4.48 -0.76
01/15/2019 10:11 464 4.12 0.05
12/18/2018 9:44 446 4.11 0.01
11/15/2018 9:20 269 3.50 0.20
10/03/2018 14:00 210 3.53 0.01
09/04/2018 11:56 10,200 17.89 -0.44
09/04/2018 11:56 10,200 17.89 -0.44
09/04/2018 11:56 10,200 17.89 -0.44
09/04/2018 11:56 10,200 17.89 -0.44
08/06/2018 10:23 148 3.34 0.02
07/05/2018 11:17 3,890 9.96 -0.13
06/12/2018 10:48 231 3.55 0.05
05/02/2018 10:37 208 3.50 0.03
04/12/2018 10:03 215 3.54 0.02
03/13/2018 10:45 251 3.60 -0.10
02/14/2018 13:57 220 3.60 -0.16
01/10/2018 13:29 178 3.85 -0.51
12/04/2017 9:56 203 3.53 -0.13
11/02/2017 10:43 226 3.59 -0.14
10/16/2017 13:54 655 4.71 -0.37
09/13/2017 11:12 189 3.50 -0.13
08/22/2017 11:03 5,940 12.00 -0.05
08/01/2017 10:21 285 3.70 -0.11
07/03/2017 10:02 398 4.05 -0.21
06/07/2017 10:15 350 4.09 -0.35
05/24/2017 11:15 4,810 11.25 -0.72
05/09/2017 9:39 413 4.05 -0.17
04/11/2017 10:09 216 3.50 -0.07
03/08/2017 9:45 225 3.52 -0.07
02/07/2017 9:02 263 3.70 -0.17
12/28/2016 9:40 409 4.46 -0.60
12/05/2016 12:54 216 3.59 -0.16
11/03/2016 10:05 170 3.43 -0.11
10/18/2016 9:50 220 3.50 -0.06
09/08/2016 14:49 232 3.57 -0.11
08/02/2016 13:44 166 3.39 -0.08
07/06/2016 10:07 310 3.80 -0.15
06/01/2016 10:54 8,060 15.25 -0.71
05/04/2016 11:19 1,530 6.28 -0.35
04/04/2016 9:46 257 3.58 -0.06
03/08/2016 13:11 304 3.78 -0.15
02/11/2016 13:20 385 3.86 -0.04
01/07/2016 10:02 318 3.77 -0.10
12/09/2015 13:05 232 3.69 -0.23
11/19/2015 12:39 243 3.66 -0.17
10/21/2015 11:23 163 3.45 -0.15
09/22/2015 13:10 216 3.59 -0.16
08/28/2015 11:28 266 3.65 -0.11
07/21/2015 14:23 465 4.25 -0.27
06/08/2015 10:11 14,300 20.81 0.28
05/08/2015 10:45 28,400 27.77 -0.43
04/27/2015 13:34 225 3.41 0.04
03/23/2015 14:03 163 3.28 0.02
02/20/2015 14:22 176 3.25 0.08
01/26/2015 13:38 211 3.36 0.06
12/11/2014 13:11 178 3.31 0.03
11/10/2014 14:07 172 3.38 -0.06
10/03/2014 11:30 6,980 14.35 -1.09
09/02/2014 12:00 6,350 13.61 -1.14
08/07/2014 14:46 59.9 2.83 0.13
07/01/2014 10:34 1,680 6.24 -0.07
06/16/2014 14:00 392 3.96 -0.13
05/16/2014 14:00 3,890 9.75 -0.37
04/23/2014 14:59 137 3.13 0.10
03/20/2014 14:45 139 3.15 0.08
02/21/2014 10:11 194 3.39 -0.01
01/21/2014 11:38 113 3.41 -0.26
12/03/2013 12:08 113 3.06 0.09
11/13/2013 10:33 188 3.30 0.07
10/24/2013 11:54 142 3.13 0.11
10/07/2013 12:30 1,840 6.72 -0.28
09/12/2013 14:31 59.9 2.86 0.09
09/06/2013 10:32 33.5 2.82 0.00
08/29/2013 13:43 20.6 2.36 0.37
08/07/2013 11:28 229 3.39 0.07
07/22/2013 11:38 64.4 2.86 0.11
06/18/2013 15:00 248 3.54 -0.04
05/31/2013 11:30 8,720 17.02 -1.71
05/28/2013 13:00 6,560 13.13 -0.40
05/16/2013 14:30 150 3.16 0.10
04/08/2013 13:50 155 3.20 0.08
03/14/2013 14:30 164 3.26 0.04
02/13/2013 14:00 144 3.22 0.03
01/09/2013 10:20 117 3.14 0.02
12/05/2012 13:15 93.5 3.09 -0.01
11/14/2012 10:00 88.6 3.04 0.02
10/23/2012 14:00 69.0 3.04 -0.05
09/14/2012 11:45 73.6 3.01 -0.01
09/07/2012 11:00 42.0 3.20 -0.33
08/02/2012 11:25 27.5 2.61 0.17
07/06/2012 11:30 65.2 2.93 0.04
06/14/2012 15:45 117 3.08 0.08
05/14/2012 10:30 294 3.57 0.04
04/17/2012 11:00 1,860 7.17 -0.70
03/27/2012 11:45 248 3.45 0.05
02/29/2012 10:30 307 3.53 0.11
01/04/2012 13:30 214 3.19 0.23
12/08/2011 13:00 160 3.26 0.03
11/09/2011 15:04 249 3.48 0.02
10/13/2011 12:10 218 3.34 0.09
09/22/2011 11:36 175 3.25 0.08
08/23/2011 10:30 450 4.01 -0.07
07/26/2011 11:46 231 3.43 0.03
06/24/2011 13:08 437 3.95 -0.03
05/23/2011 13:15 6,190 13.89 -1.62
05/12/2011 13:28 381 3.78 0.03
04/20/2011 11:29 400 3.87 -0.02
03/17/2011 14:05 285 3.49 0.10
01/26/2011 10:45 204 3.87 -0.47
12/10/2010 14:08 232 3.38 0.08
11/18/2010 15:19 246 3.47 0.02
10/22/2010 15:03 174 3.29 0.04
09/21/2010 10:45 197 3.32 0.07
08/24/2010 10:35 307 3.63 0.01
08/03/2010 11:16 257 3.50 0.02
06/24/2010 11:00 6,130 13.50 -1.31
05/28/2010 9:55 569 4.25 -0.07
04/28/2010 14:00 486 3.96 0.05
03/31/2010 14:35 580 4.23 -0.03
02/23/2010 9:45 218 3.83 -0.40
11/30/2009 13:45 205 3.31 0.09
10/28/2009 10:10 433 3.90 0.01
09/23/2009 15:10 213 3.33 0.09
08/31/2009 12:00 1,680 6.90 -0.72
07/30/2009 11:04 138 3.12 0.11
06/29/2009 11:00 582 4.35 -0.14
05/28/2009 14:00 490 4.11 -0.09
05/04/2009 14:32 311 3.56 0.09
04/01/2009 11:32 300 3.50 0.12
02/25/2009 9:30 300 3.60 0.03
01/22/2009 13:15 282 3.65 -0.07
11/19/2008 12:45 478 4.14 -0.14
10/29/2008 13:00 2,720 8.39 -0.61
09/19/2008 10:55 310 3.62 0.03
08/26/2008 13:04 285 3.55 0.04
07/30/2008 11:15 674 4.76 -0.38
06/10/2008 11:00 8,270 15.16 -0.38
05/28/2008 10:30 2,330 7.73 -0.53
04/29/2008 14:30 417 4.25 -0.37
03/20/2008 13:30 323 3.60 0.08
02/29/2008 13:00 1,250 5.84 -0.41
01/22/2008 13:15 282 3.65 -0.07
12/19/2007 12:40 240 3.58 -0.10
11/13/2007 14:06 256 3.60 -0.09
10/24/2007 13:45 1,200 5.98 -0.64
09/28/2007 11:00 644 4.66 -0.34
08/21/2007 13:00 291 3.75 -0.15
07/26/2007 11:05 129 3.39 -0.19
06/20/2007 10:45 695 4.70 -0.29
05/07/2007 14:30 18,300 23.81 -0.13
04/26/2007 14:30 5,040 10.63 0.18
03/28/2007 14:30 208 3.35 0.06
01/31/2007 12:30 99.1 3.23 -0.13
12/13/2006 13:03 138 3.19 0.04
11/22/2006 13:01 129 3.18 0.02
10/30/2006 10:02 123 3.17 0.01
09/19/2006 10:45 1,800 6.96 -0.59
08/21/2006 13:25 4,020 10.36 -0.81
07/27/2006 11:30 79.1 3.00 0.03
06/27/2006 11:15 168 3.31 0.00
05/19/2006 10:30 139 3.23 0.00
04/27/2006 10:45 143 3.22 0.02
03/29/2006 12:30 145 3.25 0.00
02/14/2006 13:00 118 3.16 0.01
01/06/2006 13:45 117 3.17 -0.01
11/14/2005 9:56 93.3 3.13 -0.05
10/18/2005 10:46 92.6 3.07 0.01
09/27/2005 11:20 90.5 3.03 0.04
08/10/2005 14:09 84.5 3.04 0.01
07/27/2005 11:00 1,600 5.89 0.15
06/23/2005 11:26 248 3.49 0.01
05/17/2005 12:35 9,420 16.36 -0.25
04/27/2005 10:48 361 3.71 0.05
03/28/2005 13:29 177 3.35 -0.01
02/04/2005 9:50 190 3.36 0.01
12/16/2004 13:00 134 3.22 0.00
11/23/2004 10:06 143 3.25 -0.01
10/19/2004 11:12 110 3.14 0.00
09/28/2004 11:02 115 3.15 0.01
08/23/2004 13:43 126 3.16 0.03
07/27/2004 10:32 175 3.30 0.03
06/22/2004 11:35 619 4.17 0.11
05/19/2004 14:40 2,800 7.42 0.48
04/14/2004 13:33 218 3.40 0.03
03/24/2004 10:40 255 3.50 0.01
02/26/2004 10:30 778 4.48 0.08
01/15/2004 12:45 142 3.22 0.02
12/18/2003 9:40 147 3.23 0.03
11/20/2003 12:58 139 3.22 0.01
10/10/2003 11:38 122 3.13 0.05
09/24/2003 11:02 249 3.50 0.00
08/21/2003 14:16 297 3.62 0.00
07/29/2003 13:36 151 3.22 0.05
07/14/2003 12:00 106 3.05 0.08
06/11/2003 11:09 290 3.56 0.04
05/14/2003 14:42 391 3.82 0.01
04/11/2003 13:54 227 3.42 0.03
03/13/2003 9:58 198 3.35 0.04
02/12/2003 12:30 163 3.25 0.05
01/15/2003 12:40 152 3.26 0.01
12/10/2002 13:36 174 3.30 0.03
11/06/2002 9:39 191 3.38 -0.01
09/24/2002 11:11 116 3.14 0.02
09/04/2002 10:01 164 3.25 0.05
07/30/2002 13:12 105 3.07 0.05
06/25/2002 10:36 188 3.33 0.03
05/29/2002 11:10 4,820 10.95 -0.40
05/21/2002 11:04 395 3.80 0.04
04/16/2002 10:05 245 3.48 0.01
03/28/2002 10:00 296 3.55 0.07
03/05/2002 12:15 279 3.56 0.01
01/29/2002 9:10 240 3.46 0.02
12/20/2001 12:30 230 3.49 -0.03
12/03/2001 13:30 231 3.51 -0.05
11/30/2001 9:30 247 3.55 -0.06
10/30/2001 9:20 218 3.43 0.00
09/19/2001 11:00 2,330 7.38 -0.18
08/27/2001 10:30 192 3.38 -0.01
07/30/2001 11:00 670 4.20 0.17
06/15/2001 13:00 8,530 16.02 -0.93
05/31/2001 11:20 4,700 11.14 -0.74
04/24/2001 11:00 564 3.98 0.19
03/29/2001 9:30 451 3.95 0.00
03/13/2001 10:40 5,940 12.47 -0.52
01/23/2001 9:15 206 3.59 -0.18
12/27/2000 9:45 175 3.90 -0.57
12/05/2000 9:20 219 3.42 0.02
10/11/2000 11:14 163 3.30 0.00
09/27/2000 11:15 172 3.30 0.02
08/23/2000 10:30 369 3.75 0.03
07/20/2000 14:30 407 3.89 -0.03
06/22/2000 10:30 220 3.44 0.00
05/23/2000 11:30 300 3.61 0.02
04/25/2000 10:30 347 3.69 0.04
03/30/2000 9:30 362 3.73 0.04
02/23/2000 9:00 387 3.80 0.02
01/26/2000 9:30 176 4.04
12/28/1999 8:45 308 4.17
11/29/1999 10:30 313 3.70
10/12/1999 11:45 270 3.58
09/28/1999 10:10 279 3.58
08/12/1999 10:30 1,320 5.58
07/19/1999 11:20 950 5.15
06/23/1999 10:30 2,000 6.72
05/24/1999 12:20 2,700 7.91
04/28/1999 15:00 594 4.18
03/30/1999 9:30 370 3.83
02/25/1999 13:30 382 3.81
01/26/1999 13:00 477 4.06
12/15/1998 13:45 356 3.78
12/08/1998 11:25 367 3.80
11/18/1998 9:10 599 4.23
10/19/1998 11:00 297 3.67
09/22/1998 10:05 1,820 6.43
08/17/1998 10:15 367 3.86
07/21/1998 11:30 373 3.95
06/18/1998 14:25 7,260 13.70
05/19/1998 11:15 427 4.02
04/22/1998 15:10 758 4.58
03/24/1998 10:00 1,480 5.70
02/23/1998 10:00 376 3.92
02/02/1998 12:20 4,460 10.73
01/28/1998 11:00 367 3.86
12/15/1997 9:40 390 3.95
11/17/1997 10:45 280 3.64
10/21/1997 13:30 219 3.52
10/20/1997 10:45 222 3.52
09/22/1997 11:45 185 3.43
08/18/1997 11:10 578 4.36
07/21/1997 11:00 415 4.02
06/25/1997 11:30 9,450 16.14
06/10/1997 11:15 324 3.72
05/20/1997 11:00 274 3.64
04/18/1997 10:20 518 4.24
03/25/1997 9:45 341 3.76
02/18/1997 13:50 680 4.34
01/21/1997 10:30 220 4.04
12/16/1996 9:30 359 3.79
11/18/1996 9:45 4,000 9.94
11/06/1996 12:40 228 3.55
10/23/1996 12:40 222 3.53
09/25/1996 10:00 476 4.02
08/22/1996 15:15 5,220 11.01
07/22/1996 11:00 1,040 4.91
06/25/1996 10:45 4,110 9.63
05/29/1996 13:00 10,100 17.45
05/27/1996 12:40 8,780 15.04
05/22/1996 11:45 1,260 5.45
04/18/1996 13:30 324 3.69
03/19/1996 9:30 266 3.56
02/20/1996 10:20 361 3.80
01/16/1996 11:15 261 3.61
12/15/1995 15:00 214 3.44
11/21/1995 10:00 222 3.55
10/17/1995 10:45 181 3.41
09/21/1995 10:00 200 3.44
08/25/1995 10:00 249 3.55
07/21/1995 11:30 595 4.39
06/20/1995 10:00 594 4.21
05/25/1995 12:30 1,640 6.01
05/08/1995 13:35 11,200 17.75
05/02/1995 11:30 1,940 6.17
04/05/1995 13:40 325 3.76
03/15/1995 12:00 1,310 5.11
02/09/1995 9:45 550 4.19
01/05/1995 9:00 276 4.13
07/26/1993 11:10 26,900 28.29
06/18/1993 14:15 6,550 12.80
03/15/1993 13:40 14,000 20.20
03/11/1993 13:00 10,100 16.32
03/05/1993 13:50 5,580 11.35
07/25/1990 15:55 5,320 10.78
06/20/1990 17:00 3,000 8.40
06/18/1990 11:35 5,320 12.16
09/11/1989 14:30 7,740 14.26
06/27/1989 10:50 3,970 9.84
03/25/1987 12:00 30,300 27.03
03/20/1987 12:00 4,190 10.19
10/01/1986 13:00 6,000 12.52
07/10/1986 13:00 3,080 9.20
07/02/1986 13:00 22,200 25.04
07/01/1986 13:00 11,200 18.32
Export



Download Rating Curve
  
2.00     0.00
2.01     0.01
2.02     0.02
2.03     0.03
2.04     0.05
2.05     0.06
2.06     0.07
2.07     0.08
2.08     0.10
2.09     0.11
2.10     0.12
2.11     0.13
2.12     0.14
2.13     0.16
2.14     0.17
2.15     0.18
2.16     0.19
2.17     0.20
2.18     0.22
2.19     0.23
2.20     0.24
2.21     0.25
2.22     0.27
2.23     0.28
2.24     0.29
2.25     0.30
2.26     0.31
2.27     0.33
2.28     0.34
2.29     0.35
2.30     0.36
2.31     0.37
2.32     0.39
2.33     0.40
2.34     0.41
2.35     0.47
2.36     0.53
2.37     0.60
2.38     0.68
2.39     0.78
2.40     0.88
2.41     0.94
2.42     1.02
2.43     1.09
2.44     1.18
2.45     1.26
2.46     1.36
2.47     1.46
2.48     1.57
2.49     1.69
2.50     1.81
2.51     1.94
2.52     2.09
2.53     2.24
2.54     2.40
2.55     2.58
2.56     2.76
2.57     2.96
2.58     3.17
2.59     3.40
2.60     3.64
2.61     3.90
2.62     4.17
2.63     4.46
2.64     4.77
2.65     5.11
2.66     5.46
2.67     5.84
2.68     6.24
2.69     6.67
2.70     7.12
2.71     7.60
2.72     8.12
2.73     8.67
2.74     9.25
2.75     9.87
2.76     10.53
2.77     11.23
2.78     11.97
2.79     12.76
2.80     13.60
2.81     14.49
2.82     15.43
2.83     16.43
2.84     17.50
2.85     18.63
2.86     19.82
2.87     21.09
2.88     22.44
2.89     23.87
2.90     25.38
2.91     26.98
2.92     28.68
2.93     30.48
2.94     32.38
2.95     34.40
2.96     36.53
2.97     38.79
2.98     41.18
2.99     43.71
Download Rating Curve